Latest Weather Observations for Fortescue Dave Forrest

IDW60801

Issued at 8:02 pm WST Sunday 25 January 2015 (issued every 30 minutes, with the page automatically refreshed every 10 minutes)

About weather observations | Map of weather stations | Latest weather observations for WA | Other Formats
Station Details ID: 505056 Name: FORTESCUE DAVE FORREST Lat: -22.29 Lon: 119.43 Height: 474.6 m
Data from the previous 72 hours. | See also: Recent months for locations in Western Australia
Date/Time
WST
Temp
°C
App
Temp
°C
Dew
Point
Rel
Hum
%
Delta-T
°C
Wind Press
QNH
hPa
Press
MSL
hPa
Rain
since 9 am
mm
Dir
 
Spd
km/h
Gust
km/h
Spd
kts
Gust
kts
25/08:00pm 31.8 30.0 21.1 53 7.3 NW 32 44 17 24 1008.6 1004.5 0.0
25/07:30pm 32.5 30.6 20.2 48 8.3 NW 30 43 16 23 1008.7 1004.6 0.0
25/07:00pm 32.7 30.9 20.4 48 8.3 WNW 30 43 16 23 1009.1 1005.0 0.0
25/06:30pm 33.6 30.7 18.9 41 9.8 NW 32 43 17 23 1008.9 1004.8 0.0
25/06:00pm 34.2 32.3 19.4 41 10.0 NNW 28 39 15 21 1008.3 1004.2 0.0
25/05:30pm 34.5 32.6 20.2 43 9.7 NW 30 39 16 21 1007.9 1003.8 0.0
25/05:00pm 35.6 34.3 19.8 39 10.7 NW 26 35 14 19 1007.7 1003.6 0.0
25/04:30pm 36.1 34.8 19.9 38 11.0 NW 26 35 14 19 1007.3 1003.2 0.0
25/04:00pm 36.4 35.4 19.7 37 11.3 NNW 24 37 13 20 1007.0 1002.8 0.0
25/03:52pm 36.5 35.2 19.9 38 11.3 NNW 26 52 14 28 1007.2 1003.1 0.0
25/03:30pm 37.2 36.2 19.7 36 11.9 NNW 24 33 13 18 1007.6 1003.5 0.0
25/03:00pm 36.6 35.0 20.1 38 11.3 NNW 28 41 15 22 1008.2 1004.1 0.0
25/02:30pm 35.9 35.2 19.6 38 11.0 NNW 22 35 12 19 1008.7 1004.6 0.0
25/02:00pm 36.0 33.6 19.2 37 11.3 NNW 30 39 16 21 1008.7 1004.6 0.0
25/01:30pm 36.0 33.9 19.0 36 11.4 NNW 28 43 15 23 1009.2 1005.1 0.0
25/01:00pm 35.0 33.6 19.7 40 10.3 NNW 26 39 14 21 1009.8 1005.7 0.0
25/12:30pm 34.9 33.2 19.9 41 10.2 N 28 39 15 21 1010.3 1006.2 0.0
25/12:00pm 34.4 31.6 20.3 43 9.6 N 35 52 19 28 1010.4 1006.3 0.0
25/11:37am 33.5 31.3 20.4 46 8.9 N 32 50 17 27 1010.7 1006.6 0.0
25/11:30am 34.2 31.9 20.6 45 9.3 N 33 46 18 25 1010.9 1006.8 0.0
25/11:29am 33.7 31.3 20.3 45 9.1 N 33 46 18 25 1010.8 1006.7 0.0
25/11:00am 32.3 28.8 20.3 49 8.1 NNE 39 52 21 28 1011.1 1007.1 0.0
25/10:30am 33.1 30.6 20.9 48 8.3 N 35 50 19 27 1011.4 1007.3 0.0
25/10:00am 31.6 29.7 22.1 57 6.6 NNE 35 50 19 27 1011.7 1007.6 0.0
25/09:30am 29.5 26.9 22.2 65 5.0 NNE 39 57 21 31 1011.4 1007.3 0.0
25/09:27am 29.3 26.8 22.3 66 4.8 NNE 39 57 21 31 1011.3 1007.2 0.0
25/09:00am 29.2 26.8 21.9 64 5.0 NNE 37 52 20 28 1011.5 1007.4 0.0
25/08:51am 29.0 27.3 21.7 64 5.0 NNE 33 52 18 28 1011.6 1007.5 0.0
25/08:30am 28.8 26.7 21.0 62 5.3 NNE 33 44 18 24 1011.4 1007.3 0.0
25/08:00am 29.3 26.9 19.2 54 6.7 NNE 30 39 16 21 1010.8 1006.7 0.0
25/07:30am 29.6 28.3 18.1 50 7.5 NNE 22 33 12 18 1010.3 1006.2 0.0
25/07:00am 30.2 28.3 17.6 46 8.2 NNE 24 33 13 18 1009.7 1005.6 0.0
25/06:30am 29.0 28.0 17.9 51 7.2 NE 20 32 11 17 1009.7 1005.6 0.0
25/06:00am 28.1 27.8 18.3 55 6.4 NE 17 26 9 14 1009.1 1005.0 0.0
25/05:30am 28.1 28.4 18.0 54 6.5 NE 13 17 7 9 1008.3 1004.2 0.0
25/05:00am 29.8 30.2 15.4 41 9.0 S 7 9 4 5 1007.4 1003.3 0.0
25/04:30am 30.6 31.6 16.3 42 9.1 SW 6 9 3 5 1007.4 1003.3 0.0
25/04:00am 30.1 31.7 17.8 47 8.0 W 6 9 3 5 1007.8 1003.7 0.0
25/03:30am 30.3 32.4 18.0 47 8.0 WSW 4 7 2 4 1007.7 1003.6 0.0
25/03:00am 30.2 30.9 18.0 48 8.0 NW 11 15 6 8 1007.3 1003.2 0.0
25/02:30am 30.4 30.5 18.3 48 7.9 NW 15 20 8 11 1007.2 1003.1 0.0
25/02:00am 30.3 31.6 18.4 49 7.8 WNW 9 19 5 10 1007.3 1003.2 0.0
25/01:30am 30.6 30.5 18.7 49 7.8 NW 17 22 9 12 1006.6 1002.5 0.0
25/01:00am 31.0 30.7 19.1 49 7.9 NW 19 26 10 14 1006.8 1002.6 0.0
25/12:30am 31.4 30.8 18.9 47 8.3 NNW 20 28 11 15 1006.9 1002.7 0.0
25/12:00am 31.8 30.8 18.9 46 8.6 NW 22 30 12 16 1006.8 1002.6 0.0
 
Date/Time
WST
Temp
°C
App
Temp
°C
Dew
Point
Rel
Hum
%
Delta-T
°C
Wind Press
QNH
hPa
Press
MSL
hPa
Rain
since 9 am
mm
Dir
 
Spd
km/h
Gust
km/h
Spd
kts
Gust
kts
24/11:30pm 32.4 31.6 18.1 42 9.4 NW 19 24 10 13 1007.1 1002.9 0.0
24/11:00pm 33.0 31.1 17.6 40 10.1 NW 24 33 13 18 1007.3 1003.2 0.0
24/10:30pm 33.7 30.9 16.3 35 11.2 NW 26 37 14 20 1007.6 1003.5 0.0
24/10:00pm 34.1 32.2 14.2 30 12.5 NW 17 22 9 12 1007.5 1003.4 0.0
24/09:30pm 34.9 33.0 14.1 28 13.0 NW 17 22 9 12 1007.5 1003.4 0.0
24/09:00pm 35.2 35.2 13.5 27 13.5 NW 6 9 3 5 1007.4 1003.3 0.0
24/08:30pm 36.2 35.5 13.1 25 14.3 WNW 9 15 5 8 1007.1 1002.9 0.0
24/08:00pm 36.5 35.0 13.0 24 14.6 WNW 13 20 7 11 1006.9 1002.7 0.0
24/07:30pm 36.7 34.1 13.2 24 14.6 WNW 19 28 10 15 1006.8 1002.6 0.0
24/07:00pm 38.0 35.1 12.4 21 15.8 WNW 19 26 10 14 1006.2 1002.1 0.0
24/06:30pm 39.6 36.8 11.2 18 17.3 NW 17 24 9 13 1005.6 1001.5 0.0
24/06:00pm 40.3 37.5 11.3 17 17.8 NW 17 24 9 13 1005.4 1001.3 0.0
24/05:30pm 41.0 39.0 11.5 17 18.2 N 13 22 7 12 1005.0 1000.8 0.0
24/05:00pm 41.3 39.8 9.3 14 19.2 ESE 7 13 4 7 1005.1 1000.9 0.0
24/04:30pm 42.1 40.0 9.7 14 19.6 ESE 11 20 6 11 1005.1 1000.9 0.0
24/04:00pm 42.0 40.3 9.7 14 19.5 SW 9 19 5 10 1005.2 1001.1 0.0
24/03:30pm 41.5 38.6 9.8 15 19.1 SSW 15 30 8 16 1005.5 1001.4 0.0
24/03:00pm 42.0 38.7 9.5 14 19.6 SW 17 26 9 14 1005.7 1001.6 0.0
24/02:30pm 43.3 39.8 10.3 14 20.2 SSW 19 30 10 16 1005.7 1001.6 0.0
24/02:00pm 42.8 40.9 10.4 14 19.8 S 11 26 6 14 1005.9 1001.8 0.0
24/01:30pm 41.5 39.7 10.8 16 18.8 ESE 11 32 6 17 1006.1 1002.0 0.0
24/01:00pm 41.6 39.0 10.6 16 19.0 ESE 15 28 8 15 1006.5 1002.4 0.0
24/12:30pm 40.6 37.7 11.0 17 18.1 ESE 17 32 9 17 1006.8 1002.6 0.0
24/12:00pm 40.4 37.7 11.7 18 17.7 E 17 26 9 14 1007.3 1003.2 0.0
24/11:30am 39.3 36.5 12.7 20 16.6 E 19 30 10 16 1007.7 1003.6 0.0
24/11:00am 38.0 35.5 12.3 21 15.9 ESE 17 26 9 14 1008.1 1004.0 0.0
24/10:30am 38.1 35.9 13.4 23 15.5 SE 17 30 9 16 1008.6 1004.5 0.0
24/10:00am 37.7 36.0 13.5 23 15.2 SE 15 24 8 13 1009.3 1005.2 0.0
24/09:30am 36.8 34.3 13.5 24 14.6 SE 19 30 10 16 1009.9 1005.8 0.0
24/09:00am 35.3 35.9 14.3 28 13.2 NE 4 9 2 5 1010.5 1006.4 0.0
24/08:30am 32.7 31.8 14.9 34 11.2 NE 13 20 7 11 1010.9 1006.8 0.0
24/08:00am 31.5 30.7 15.2 37 10.3 NE 13 19 7 10 1011.0 1007.0 0.0
24/07:30am 30.0 29.6 16.2 43 8.8 NE 13 19 7 10 1011.3 1007.2 0.0
24/07:00am 30.2 29.1 16.3 43 8.8 NE 17 22 9 12 1011.1 1007.1 0.0
24/06:30am 29.5 28.1 17.0 47 8.0 NE 20 28 11 15 1011.1 1007.1 0.0
24/06:00am 30.1 28.9 17.1 45 8.4 NE 19 24 10 13 1011.3 1007.2 0.0
24/05:30am 32.2 31.1 14.2 33 11.2 NE 13 19 7 10 1010.9 1006.8 0.0
24/05:00am 32.2 30.8 14.5 34 11.1 NE 15 20 8 11 1010.4 1006.3 0.0
24/04:30am 32.4 31.3 14.2 33 11.3 E 13 19 7 10 1010.1 1006.0 0.0
24/04:00am 32.3 32.6 14.4 33 11.2 ENE 6 7 3 4 1009.6 1005.5 0.0
24/03:30am 32.0 32.0 14.3 34 11.0 SE 7 11 4 6 1008.9 1004.8 0.0
24/03:00am 32.0 32.2 14.6 34 10.9 SSE 7 15 4 8 1008.7 1004.6 0.0
24/02:30am 32.4 31.1 14.7 34 11.1 S 15 26 8 14 1008.4 1004.3 0.0
24/02:00am 32.1 29.9 15.0 35 10.8 S 20 33 11 18 1008.1 1004.0 0.0
24/01:42am 32.3 28.6 14.9 35 10.9 SSW 28 46 15 25 1008.3 1004.2 0.0
24/01:30am 32.4 27.9 14.9 34 11.0 S 32 46 17 25 1008.6 1004.5 0.0
24/01:23am 32.5 28.7 14.8 34 11.1 S 28 46 15 25 1008.8 1004.7 0.0
24/01:00am 32.9 29.6 14.1 32 11.7 SSW 24 39 13 21 1008.6 1004.5 0.0
24/12:33am 34.1 29.7 13.0 28 13.0 SSW 28 46 15 25 1008.0 1003.9 0.0
24/12:30am 34.3 30.6 12.7 27 13.2 SSW 24 35 13 19 1008.0 1003.9 0.0
24/12:06am 34.6 30.0 12.3 26 13.6 SW 28 46 15 25 1007.7 1003.6 0.0
24/12:00am 34.8 29.8 12.1 25 13.8 SW 30 46 16 25 1007.8 1003.7 0.0
 
Date/Time
WST
Temp
°C
App
Temp
°C
Dew
Point
Rel
Hum
%
Delta-T
°C
Wind Press
QNH
hPa
Press
MSL
hPa
Rain
since 9 am
mm
Dir
 
Spd
km/h
Gust
km/h
Spd
kts
Gust
kts
23/11:57pm 34.9 30.2 12.1 25 13.9 SW 28 46 15 25 1007.8 1003.7 0.0
23/11:30pm 35.2 32.1 12.3 25 14.0 SW 20 28 11 15 1008.2 1004.1 0.0
23/11:00pm 35.3 33.6 12.5 25 14.0 WSW 13 19 7 10 1008.2 1004.1 0.0
23/10:30pm 35.7 33.9 12.1 24 14.4 SW 13 19 7 10 1008.3 1004.2 0.0
23/10:00pm 36.1 33.5 12.0 23 14.7 SW 17 28 9 15 1008.1 1004.0 0.0
23/09:30pm 36.5 32.5 11.9 22 15.0 WNW 24 35 13 19 1008.0 1003.9 0.0
23/09:20pm 36.8 32.5 11.9 22 15.2 W 26 37 14 20 1007.6 1003.5 0.0
23/09:00pm 37.0 30.6 11.9 22 15.4 SW 37 57 20 31 1007.6 1003.5 0.0
23/08:30pm 38.3 32.6 11.2 19 16.5 WSW 32 52 17 28 1006.4 1002.3 0.0
23/08:08pm 38.9 33.2 11.2 19 16.9 WSW 32 50 17 27 1005.8 1001.7 0.0
23/08:00pm 39.2 34.6 11.2 18 17.1 W 26 44 14 24 1005.8 1001.7 0.0
23/07:30pm 40.1 36.9 11.3 18 17.6 W 19 35 10 19 1005.5 1001.4 0.0
23/07:00pm 41.3 39.9 7.2 13 19.9 SSW 4 6 2 3 1005.1 1000.9 0.0
23/06:30pm 41.9 40.6 5.9 11 20.6 SW 2 4 1 2 1004.7 1000.5 0.0
23/06:00pm 43.2 42.0 6.3 11 21.4 NNW 2 6 1 3 1004.0 999.9 0.0
23/05:30pm 43.7 40.2 5.4 10 21.9 ENE 13 24 7 13 1003.9 999.8 0.0
23/05:00pm 44.4 40.9 5.5 9 22.4 E 13 22 7 12 1003.9 999.8 0.0
23/04:30pm 44.5 41.4 5.7 10 22.4 ENE 11 26 6 14 1004.0 999.9 0.0
23/04:00pm 44.5 40.3 5.8 10 22.4 E 17 26 9 14 1004.3 1000.2 0.0
23/03:30pm 45.6 43.4 6.4 9 22.9 SSE 7 19 4 10 1004.8 1000.6 0.0
23/03:00pm 44.4 40.7 6.1 10 22.3 ENE 15 28 8 15 1005.2 1001.1 0.0
23/02:30pm 44.6 41.7 6.3 10 22.3 SSW 11 22 6 12 1005.5 1001.4 0.0
23/02:00pm 44.7 40.7 6.8 10 22.3 SE 17 28 9 15 1005.8 1001.7 0.0
23/01:30pm 44.3 40.0 6.8 10 21.9 SE 19 33 10 18 1006.1 1002.0 0.0
23/01:00pm 44.5 40.2 6.9 10 22.1 SE 19 32 10 17 1006.4 1002.3 0.0
23/12:30pm 44.0 39.2 7.5 11 21.5 ESE 22 44 12 24 1006.8 1002.6 0.0
23/12:00pm 43.6 38.7 8.4 12 21.0 SE 24 39 13 21 1007.2 1003.1 0.0
23/11:43am 43.3 37.6 8.5 12 20.8 SE 28 50 15 27 1007.5 1003.4 0.0
23/11:30am 42.7 36.7 8.6 13 20.3 ESE 30 46 16 25 1007.7 1003.6 0.0
23/11:00am 42.3 36.2 9.6 14 19.8 ESE 32 50 17 27 1008.1 1004.0 0.0
23/10:34am 42.2 37.0 10.2 15 19.5 SE 28 46 15 25 1008.4 1004.3 0.0
23/10:30am 42.1 36.6 10.7 15 19.2 SE 30 46 16 25 1008.4 1004.3 0.0
23/10:00am 40.7 34.7 10.0 16 18.5 SE 32 46 17 25 1008.6 1004.5 0.0
23/09:30am 40.6 35.8 11.8 18 17.8 SE 28 48 15 26 1009.1 1005.0 0.0
23/09:03am 39.4 34.8 12.4 20 16.8 SSE 28 46 15 25 1009.4 1005.3 0.0
23/09:00am 39.2 34.3 12.6 20 16.6 SE 30 46 16 25 1009.4 1005.3 0.0
23/08:46am 38.6 33.5 13.1 22 15.9 SSE 32 50 17 27 1009.5 1005.4 0.0
23/08:30am 38.1 34.2 13.4 23 15.5 SSE 26 41 14 22 1009.5 1005.4 0.0
23/08:00am 36.9 33.3 14.2 25 14.3 SE 26 35 14 19 1009.5 1005.4 0.0
23/07:30am 35.6 33.4 14.3 28 13.4 SSE 19 28 10 15 1009.7 1005.6 0.0
23/07:00am 33.6 31.6 14.0 30 12.2 SSE 17 30 9 16 1009.7 1005.6 0.0
23/06:30am 32.5 30.8 13.6 31 11.6 SSE 15 22 8 12 1009.7 1005.6 0.0
23/06:00am 31.6 29.8 13.2 32 11.2 SSE 15 26 8 14 1009.6 1005.5 0.0
23/05:30am 30.8 30.3 13.9 35 10.4 S 9 15 5 8 1008.8 1004.7 0.0
23/05:00am 30.2 30.2 14.2 37 9.9 SSW 7 9 4 5 1008.3 1004.2 0.0
23/04:30am 30.7 30.2 13.8 35 10.4 SSW 9 11 5 6 1008.0 1003.9 0.0
23/04:00am 30.5 30.4 14.0 36 10.2 SW 7 9 4 5 1008.0 1003.9 0.0
23/03:30am 31.2 31.3 13.8 34 10.7 SW 6 9 3 5 1007.9 1003.8 0.0
23/03:00am 32.1 31.6 13.7 32 11.4 SW 9 15 5 8 1008.1 1004.0 0.0
23/02:30am 32.6 31.0 13.8 32 11.6 SW 15 22 8 12 1008.1 1004.0 0.0
23/02:00am 32.6 30.8 14.5 33 11.3 WSW 17 24 9 13 1008.2 1004.1 0.0
23/01:30am 32.6 31.0 14.9 34 11.1 WSW 17 20 9 11 1008.3 1004.2 0.0
23/01:00am 32.7 30.1 15.0 34 11.2 WSW 22 32 12 17 1008.4 1004.3 0.0
23/12:30am 33.2 29.9 14.9 33 11.5 WSW 26 39 14 21 1008.1 1004.0 0.0
23/12:00am 33.7 30.0 14.9 32 11.9 WSW 28 39 15 21 1008.3 1004.2 0.0
 
Date/Time
WST
Temp
°C
App
Temp
°C
Dew
Point
Rel
Hum
%
Delta-T
°C
Wind Press
QNH
hPa
Press
MSL
hPa
Rain
since 9 am
mm
Dir
 
Spd
km/h
Gust
km/h
Spd
kts
Gust
kts
22/11:30pm 34.1 31.4 15.5 32 11.8 WSW 24 35 13 19 1008.3 1004.2 0.0
22/11:00pm 34.8 32.0 15.3 31 12.4 WSW 24 33 13 18 1008.4 1004.3 0.0
22/10:30pm 35.4 32.8 14.9 29 13.0 WSW 22 30 12 16 1008.5 1004.4 0.0
22/10:00pm 35.3 32.9 15.4 30 12.7 WSW 22 32 12 17 1009.1 1005.0 0.0
22/09:30pm 36.0 33.9 14.7 28 13.5 SW 19 26 10 14 1009.3 1005.2 0.0
22/09:00pm 36.4 34.3 14.7 27 13.8 W 19 26 10 14 1008.7 1004.6 0.0
22/08:30pm 36.8 34.4 13.7 25 14.5 WSW 19 30 10 16 1008.1 1004.0 0.0

Other Formats:

Comma delimited format used in spreadsheet applications
http://www.bom.gov.au/fwo/IDW60801/IDW60801.99736.axf

JavaScript Object Notation format (JSON) in row-major order
http://www.bom.gov.au/fwo/IDW60801/IDW60801.99736.json